Time;durP1;ratioP1;P1;durP2;ratioP2;P2;SDS_P1;SDS_P2;PMS_P1;PMS_P2;Temp;Humidity;BMP_temperature;BMP_pressure;BME280_temperature;BME280_humidity;BME280_pressure;Samples;Min_cycle;Max_cycle;Signal;HPM_P1;HPM_P2
2023/04/01 00:01:26;;;;;;;12.10;7.80;;;;;;;11.22;80.84;98217.20;131153;1254;107914;-72
2023/04/01 00:04:32;;;;;;;12.80;8.20;;;;;;;11.21;80.90;98210.73;131126;1254;107535;-72
2023/04/01 00:07:37;;;;;;;13.00;8.00;;;;;;;11.21;80.85;98209.51;130939;1255;164348;-75
2023/04/01 00:10:43;;;;;;;14.80;7.90;;;;;;;11.17;80.87;98205.04;131101;1257;107380;-73
2023/04/01 00:13:49;;;;;;;9.70;7.00;;;;;;;11.14;81.00;98203.11;131125;1264;107667;-72
2023/04/01 00:16:55;;;;;;;10.30;7.80;;;;;;;11.13;80.81;98207.05;131108;1251;109291;-72
2023/04/01 00:20:01;;;;;;;11.00;7.20;;;;;;;11.13;81.04;98211.61;131013;1254;107359;-72
2023/04/01 00:23:06;;;;;;;12.10;7.70;;;;;;;11.12;80.90;98210.25;131197;1252;107365;-71
2023/04/01 00:26:14;;;;;;;11.90;8.00;;;;;;;11.13;81.10;98209.76;131179;1252;109263;-71
2023/04/01 00:29:20;;;;;;;10.00;7.50;;;;;;;11.11;81.30;98209.07;131068;1255;107449;-71
2023/04/01 00:32:26;;;;;;;11.50;8.40;;;;;;;11.08;81.04;98211.08;131096;1260;108506;-73
2023/04/01 00:35:32;;;;;;;12.20;7.80;;;;;;;11.04;81.30;98207.67;130921;1257;108126;-71
2023/04/01 00:38:38;;;;;;;10.40;7.10;;;;;;;11.03;81.34;98208.95;131021;1266;107260;-72
2023/04/01 00:41:44;;;;;;;12.60;7.30;;;;;;;11.03;81.25;98204.30;130970;1254;107258;-70
2023/04/01 00:44:54;;;;;;;11.40;7.60;;;;;;;11.04;81.41;98202.91;131097;1250;107256;-71
2023/04/01 00:48:04;;;;;;;11.20;8.40;;;;;;;11.04;81.30;98204.55;131101;1255;107512;-71
2023/04/01 00:51:14;;;;;;;12.30;8.70;;;;;;;11.00;81.07;98206.45;131074;1254;107364;-70
2023/04/01 00:54:23;;;;;;;12.00;9.10;;;;;;;10.97;81.15;98205.13;130964;1251;107563;-71
2023/04/01 00:57:32;;;;;;;13.40;9.00;;;;;;;10.94;81.29;98205.05;130918;1256;108021;-71
2023/04/01 01:00:39;;;;;;;12.70;8.10;;;;;;;10.91;81.83;98207.65;130995;1256;107527;-71
2023/04/01 01:03:44;;;;;;;13.80;8.70;;;;;;;10.90;81.56;98208.67;130903;1257;107392;-71
2023/04/01 01:06:57;;;;;;;12.00;8.80;;;;;;;10.90;82.14;98211.98;130992;1257;106597;-71
2023/04/01 01:10:09;;;;;;;10.70;9.00;;;;;;;10.92;81.77;98208.71;130862;1264;107510;-71
2023/04/01 01:13:26;;;;;;;13.60;9.20;;;;;;;10.92;82.09;98205.55;130973;1251;107463;-70
2023/04/01 01:16:36;;;;;;;12.40;8.90;;;;;;;10.92;81.80;98195.41;130896;1257;107557;-71
2023/04/01 01:19:59;;;;;;;10.60;7.70;;;;;;;10.90;81.88;98186.83;130992;1256;107539;-71
2023/04/01 01:23:37;;;;;;;10.30;7.80;;;;;;;10.88;81.63;98184.77;130908;1257;107588;-71
2023/04/01 01:26:51;;;;;;;11.30;8.10;;;;;;;10.88;82.16;98178.69;130816;1254;107450;-71
2023/04/01 01:30:23;;;;;;;11.90;8.60;;;;;;;10.92;81.89;98176.52;131143;1251;107235;-71
2023/04/01 01:33:45;;;;;;;10.00;7.90;;;;;;;10.96;81.99;98176.40;130997;1256;107357;-71
2023/04/01 01:36:55;;;;;;;13.30;9.40;;;;;;;10.93;81.78;98177.80;130926;1256;107473;-70
2023/04/01 01:40:04;;;;;;;13.30;8.90;;;;;;;10.87;81.84;98177.98;130948;1257;107475;-71
2023/04/01 01:43:17;;;;;;;10.90;7.80;;;;;;;10.76;81.68;98169.80;130998;1258;107481;-71
2023/04/01 01:46:27;;;;;;;12.70;8.10;;;;;;;10.63;81.52;98167.55;131011;1256;107576;-71
2023/04/01 01:49:35;;;;;;;9.70;7.40;;;;;;;10.53;81.62;98168.23;130592;1257;107655;-72
2023/04/01 01:52:40;;;;;;;11.40;8.30;;;;;;;10.45;81.66;98168.48;130785;1257;107501;-71
2023/04/01 01:55:48;;;;;;;14.10;9.00;;;;;;;10.37;81.42;98171.08;130889;1255;108046;-71
2023/04/01 01:58:59;;;;;;;10.30;8.00;;;;;;;10.27;80.98;98178.02;130702;1257;107645;-70
2023/04/01 02:02:08;;;;;;;10.00;7.90;;;;;;;10.15;81.04;98179.17;130944;1254;106634;-69
2023/04/01 02:05:17;;;;;;;10.20;7.80;;;;;;;10.04;81.25;98181.40;130931;1257;107408;-70
2023/04/01 02:08:27;;;;;;;10.60;7.60;;;;;;;9.91;81.42;98181.28;130672;1256;108129;-68
2023/04/01 02:11:37;;;;;;;9.50;6.70;;;;;;;9.80;81.29;98184.27;130851;1251;107933;-69
2023/04/01 02:14:49;;;;;;;10.10;7.90;;;;;;;9.77;81.85;98186.14;130770;1258;108119;-69
2023/04/01 02:17:56;;;;;;;;;;;;;;;9.79;81.62;98188.32;130903;1256;107807;-69
2023/04/01 02:21:04;;;;;;;10.90;7.70;;;;;;;9.85;81.94;98189.00;130891;1256;107998;-70
2023/04/01 02:24:16;;;;;;;14.10;9.20;;;;;;;9.92;82.05;98184.59;130971;1258;106436;-71
2023/04/01 02:27:22;;;;;;;13.00;8.90;;;;;;;9.97;81.92;98180.36;131012;1251;106268;-71
2023/04/01 02:30:30;;;;;;;11.70;8.30;;;;;;;10.00;82.25;98182.29;130918;1256;107548;-70
2023/04/01 02:33:37;;;;;;;11.20;7.90;;;;;;;10.01;82.27;98179.21;131183;1256;107648;-70
2023/04/01 02:36:43;;;;;;;10.70;8.20;;;;;;;10.04;82.33;98182.30;130812;1256;107269;-70
2023/04/01 02:39:48;;;;;;;14.50;10.90;;;;;;;10.08;82.26;98178.34;131061;1256;107895;-71
2023/04/01 02:42:54;;;;;;;22.00;16.20;;;;;;;10.12;82.36;98185.56;130703;1257;108084;-70
2023/04/01 02:46:01;;;;;;;23.00;17.00;;;;;;;10.14;82.68;98186.52;130516;1254;108059;-70
2023/04/01 02:49:07;;;;;;;26.90;17.20;;;;;;;10.14;82.21;98188.27;130958;1256;107737;-70
2023/04/01 02:52:13;;;;;;;80.40;55.80;;;;;;;10.13;82.32;98185.85;130892;1256;107128;-70
2023/04/01 02:55:19;;;;;;;15.60;12.20;;;;;;;10.14;82.34;98188.65;130793;1251;108030;-70
2023/04/01 02:58:25;;;;;;;11.30;8.50;;;;;;;10.16;82.57;98188.65;130780;1256;108243;-70
2023/04/01 03:01:30;;;;;;;12.80;9.80;;;;;;;10.19;82.57;98186.81;130881;1256;109181;-70
2023/04/01 03:04:36;;;;;;;15.80;13.20;;;;;;;10.25;82.62;98192.28;130527;1251;108719;-69
2023/04/01 03:07:41;;;;;;;12.70;11.00;;;;;;;10.27;82.50;98194.86;130762;1258;108013;-70
2023/04/01 03:10:47;;;;;;;13.20;11.40;;;;;;;10.29;82.51;98195.56;130744;1253;106865;-70
2023/04/01 03:13:52;;;;;;;30.60;25.70;;;;;;;10.28;83.05;98199.05;130517;1266;108099;-69
2023/04/01 03:16:59;;;;;;;12.20;9.30;;;;;;;10.27;82.93;98199.95;130746;1256;108039;-70
2023/04/01 03:20:05;;;;;;;14.90;12.60;;;;;;;10.29;82.80;98202.38;130840;1255;109194;-70
2023/04/01 03:23:11;;;;;;;19.10;17.10;;;;;;;10.32;82.84;98204.06;130935;1256;108207;-71
2023/04/01 03:26:19;;;;;;;40.10;35.40;;;;;;;10.35;82.65;98199.95;131099;1254;107407;-70
2023/04/01 03:29:24;;;;;;;29.50;25.00;;;;;;;10.37;82.71;98200.00;130787;1258;105698;-69
2023/04/01 03:32:30;;;;;;;32.00;24.30;;;;;;;10.38;82.61;98198.60;130788;1254;107345;-71
2023/04/01 03:35:35;;;;;;;39.90;25.10;;;;;;;10.37;82.75;98202.51;130785;1256;108025;-69
2023/04/01 03:38:42;;;;;;;58.10;33.20;;;;;;;10.36;82.80;98202.01;130738;1256;108080;-69
2023/04/01 03:41:49;;;;;;;154.80;96.60;;;;;;;10.36;82.95;98207.80;130802;1258;107953;-69
2023/04/01 03:44:55;;;;;;;55.80;37.00;;;;;;;10.39;82.71;98206.16;130877;1251;107869;-70
2023/04/01 03:48:00;;;;;;;27.20;19.10;;;;;;;10.42;82.81;98214.62;130918;1251;107922;-70
2023/04/01 03:51:10;;;;;;;21.60;15.50;;;;;;;10.43;82.72;98214.74;130800;1254;108000;-70
2023/04/01 03:54:16;;;;;;;96.30;54.90;;;;;;;10.41;82.94;98220.47;130758;1256;107930;-69
2023/04/01 03:57:22;;;;;;;29.60;18.20;;;;;;;10.39;82.95;98220.42;130852;1256;107377;-69
2023/04/01 04:00:28;;;;;;;18.00;12.50;;;;;;;10.32;82.87;98218.23;130775;1254;108063;-69
2023/04/01 04:03:34;;;;;;;25.60;16.50;;;;;;;10.26;82.73;98222.08;130733;1256;108076;-70
2023/04/01 04:06:39;;;;;;;26.40;17.60;;;;;;;10.22;82.67;98222.73;130924;1256;108128;-69
2023/04/01 04:09:45;;;;;;;17.50;12.80;;;;;;;10.20;82.74;98226.70;130506;1251;106904;-72
2023/04/01 04:12:51;;;;;;;24.40;15.90;;;;;;;10.17;82.64;98230.02;130775;1256;107353;-70
2023/04/01 04:15:57;;;;;;;22.40;16.40;;;;;;;10.12;82.79;98237.34;130827;1256;109259;-70
2023/04/01 04:19:02;;;;;;;18.80;13.20;;;;;;;10.07;82.79;98235.39;130887;1251;107632;-69
2023/04/01 04:22:08;;;;;;;14.70;10.80;;;;;;;10.02;82.70;98233.54;130728;1256;108099;-69
2023/04/01 04:25:13;;;;;;;15.70;10.70;;;;;;;9.97;82.54;98234.21;130846;1251;109248;-69
2023/04/01 04:28:19;;;;;;;17.60;12.70;;;;;;;9.97;82.92;98238.48;130739;1257;108420;-69
2023/04/01 04:31:26;;;;;;;15.60;11.90;;;;;;;9.99;82.79;98245.63;130911;1256;108179;-71
2023/04/01 04:34:33;;;;;;;18.00;12.70;;;;;;;10.03;82.88;98248.66;130961;1253;107446;-68
2023/04/01 04:37:39;;;;;;;26.20;19.40;;;;;;;10.06;82.86;98244.70;130854;1256;108089;-67
2023/04/01 04:40:45;;;;;;;20.80;17.10;;;;;;;10.08;82.69;98245.70;130891;1251;109009;-68
2023/04/01 04:43:54;;;;;;;19.40;14.90;;;;;;;10.08;82.72;98242.36;130803;1256;107983;-69
2023/04/01 04:47:00;;;;;;;58.20;41.00;;;;;;;10.07;83.13;98244.79;130587;1256;108567;-68
2023/04/01 04:50:08;;;;;;;51.70;35.30;;;;;;;10.09;83.06;98245.78;130511;1258;107041;-68
2023/04/01 04:53:17;;;;;;;30.80;22.80;;;;;;;10.12;82.80;98239.32;130727;1255;107455;-68
2023/04/01 04:56:25;;;;;;;26.20;19.00;;;;;;;10.16;82.80;98241.74;130811;1256;107474;-67
2023/04/01 04:59:42;;;;;;;43.20;30.60;;;;;;;10.20;82.98;98243.45;130715;1255;108067;-67
2023/04/01 05:03:00;;;;;;;43.70;30.80;;;;;;;10.22;82.95;98243.52;130500;1257;108055;-68
2023/04/01 05:06:07;;;;;;;25.60;19.40;;;;;;;10.21;82.74;98242.88;130743;1256;108004;-68
2023/04/01 05:09:12;;;;;;;58.60;37.30;;;;;;;10.22;82.90;98247.91;130674;1253;107965;-68
2023/04/01 05:12:19;;;;;;;44.10;29.60;;;;;;;10.24;82.84;98243.86;130732;1254;108085;-69
2023/04/01 05:15:43;;;;;;;30.20;22.70;;;;;;;10.31;82.99;98242.88;130536;1257;107721;-69
2023/04/01 05:18:49;;;;;;;21.70;16.60;;;;;;;10.42;83.01;98242.74;130479;1264;108560;-68
2023/04/01 05:21:56;;;;;;;27.40;19.50;;;;;;;10.50;83.39;98241.84;130610;1255;108651;-67
2023/04/01 05:25:01;;;;;;;31.70;22.20;;;;;;;10.59;83.16;98241.93;130403;1257;108009;-75
2023/04/01 05:28:07;;;;;;;44.70;28.40;;;;;;;10.67;83.32;98242.34;130709;1254;107514;-73
2023/04/01 05:31:13;;;;;;;23.80;16.90;;;;;;;10.74;83.19;98246.58;130670;1259;107543;-74
2023/04/01 05:34:23;;;;;;;22.90;16.50;;;;;;;10.82;83.21;98242.10;131002;1257;107396;-72
2023/04/01 05:37:29;;;;;;;53.40;38.70;;;;;;;10.88;83.18;98244.46;131082;1256;107526;-73
2023/04/01 05:40:35;;;;;;;37.50;27.70;;;;;;;10.96;83.17;98245.21;130720;1257;105866;-72
2023/04/01 05:43:42;;;;;;;21.20;16.20;;;;;;;11.08;83.03;98243.84;130978;1256;107501;-73
2023/04/01 05:47:23;;;;;;;18.50;14.90;;;;;;;11.18;83.27;98244.79;130614;1259;107577;-72
2023/04/01 05:50:28;;;;;;;22.70;19.20;;;;;;;11.26;83.11;98246.17;130961;1258;107437;-72
2023/04/01 05:53:34;;;;;;;56.60;49.30;;;;;;;11.33;83.02;98248.59;130929;1258;107547;-71
2023/04/01 05:56:40;;;;;;;28.00;22.60;;;;;;;11.38;83.01;98250.88;130932;1257;107547;-74
2023/04/01 05:59:45;;;;;;;33.90;25.20;;;;;;;11.41;82.80;98246.33;130837;1251;107571;-71
2023/04/01 06:02:52;;;;;;;29.50;23.40;;;;;;;11.45;82.53;98248.17;130941;1257;107494;-72
2023/04/01 06:05:57;;;;;;;25.00;19.60;;;;;;;11.47;83.01;98248.37;130985;1254;107341;-73
2023/04/01 06:09:13;;;;;;;70.80;49.10;;;;;;;11.53;82.78;98246.59;131019;1256;107565;-72
2023/04/01 06:12:45;;;;;;;71.60;49.90;;;;;;;11.56;82.60;98250.11;130976;1256;107495;-72
2023/04/01 06:15:55;;;;;;;117.50;78.80;;;;;;;11.58;82.52;98249.94;130917;1256;107453;-72
2023/04/01 06:19:14;;;;;;;226.40;151.50;;;;;;;11.58;82.24;98252.66;130964;1256;107434;-73
2023/04/01 06:22:44;;;;;;;86.20;57.00;;;;;;;11.58;82.58;98255.86;130975;1251;107538;-71
2023/04/01 06:26:17;;;;;;;29.90;21.70;;;;;;;11.59;82.81;98259.94;130944;1254;107508;-72
2023/04/01 06:29:33;;;;;;;;;;;;;;;11.70;82.56;98262.00;131249;1254;107544;-74
2023/04/01 06:32:57;;;;;;;77.40;42.90;;;;;;;11.84;82.66;98260.90;131161;1259;108153;-72
2023/04/01 06:36:20;;;;;;;101.10;57.20;;;;;;;11.90;82.15;98262.31;131064;1256;107542;-72
2023/04/01 06:39:45;;;;;;;51.10;31.00;;;;;;;11.95;82.07;98260.90;131257;1254;107402;-73
2023/04/01 06:43:01;;;;;;;25.30;18.30;;;;;;;11.94;81.84;98261.92;130934;1256;106694;-72
2023/04/01 06:46:48;;;;;;;24.20;19.30;;;;;;;11.93;82.00;98265.59;130320;1260;107283;-73
2023/04/01 06:50:37;;;;;;;23.20;19.30;;;;;;;11.92;81.78;98266.16;130387;1251;106469;-72
2023/04/01 06:54:11;;;;;;;24.40;19.00;;;;;;;11.89;81.96;98265.59;131052;1255;107512;-71
2023/04/01 06:57:42;;;;;;;32.10;26.40;;;;;;;11.98;81.79;98270.14;131051;1256;107115;-73
2023/04/01 07:00:50;;;;;;;69.40;51.20;;;;;;;12.02;81.71;98272.97;130963;1251;107526;-73
2023/04/01 07:04:01;;;;;;;41.00;29.70;;;;;;;12.05;81.55;98272.33;130894;1251;107512;-72
2023/04/01 07:07:15;;;;;;;75.50;47.30;;;;;;;12.09;81.60;98274.29;131146;1254;107477;-72
2023/04/01 07:10:36;;;;;;;64.80;43.30;;;;;;;12.15;81.45;98278.22;131150;1254;107486;-73
2023/04/01 07:14:06;;;;;;;26.00;18.40;;;;;;;12.17;81.43;98275.23;131061;1254;107634;-72
2023/04/01 07:17:19;;;;;;;19.90;15.70;;;;;;;12.17;81.31;98276.03;130926;1256;106689;-73
2023/04/01 07:20:30;;;;;;;19.80;15.10;;;;;;;12.17;81.28;98274.76;130758;1250;107530;-72
2023/04/01 07:23:43;;;;;;;18.90;14.20;;;;;;;12.19;81.13;98269.73;131226;1254;108569;-72
2023/04/01 07:27:01;;;;;;;17.00;13.90;;;;;;;12.25;81.27;98276.90;130922;1254;107487;-72
2023/04/01 07:30:18;;;;;;;15.90;13.30;;;;;;;12.30;80.85;98275.40;130947;1250;107569;-71
2023/04/01 07:33:31;;;;;;;23.00;17.80;;;;;;;12.30;80.85;98276.02;130812;1251;107302;-71
2023/04/01 07:36:44;;;;;;;29.60;21.60;;;;;;;12.33;80.99;98274.83;130942;1252;107603;-71
2023/04/01 07:39:57;;;;;;;22.00;17.40;;;;;;;12.34;80.76;98274.19;131053;1256;107562;-71
2023/04/01 07:43:42;;;;;;;30.80;27.40;;;;;;;12.28;80.69;98279.04;131024;1251;107523;-71
2023/04/01 07:47:39;;;;;;;24.30;19.00;;;;;;;12.17;80.71;98273.69;130952;1253;106500;-71
2023/04/01 07:50:54;;;;;;;110.70;95.80;;;;;;;12.09;80.38;98276.10;130968;1251;107394;-71
2023/04/01 07:54:10;;;;;;;66.20;54.60;;;;;;;12.02;80.46;98275.23;131093;1256;107405;-71
2023/04/01 07:57:22;;;;;;;25.40;19.50;;;;;;;11.99;80.66;98276.60;131117;1256;107556;-71
2023/04/01 08:00:37;;;;;;;27.20;23.50;;;;;;;11.98;80.69;98277.42;130931;1253;107873;-72
2023/04/01 08:04:09;;;;;;;24.40;21.60;;;;;;;11.98;80.77;98279.23;130905;1256;107418;-72
2023/04/01 08:07:19;;;;;;;53.50;44.30;;;;;;;11.98;80.42;98281.81;130996;1253;107523;-73
2023/04/01 08:10:47;;;;;;;41.90;34.50;;;;;;;11.95;80.49;98290.25;130946;1256;107665;-75
2023/04/01 08:14:51;;;;;;;40.10;34.50;;;;;;;11.89;80.45;98288.36;131065;1256;107523;-71
2023/04/01 08:18:42;;;;;;;23.60;19.90;;;;;;;11.84;80.64;98291.63;130894;1255;107620;-71
2023/04/01 08:21:53;;;;;;;25.90;22.60;;;;;;;11.83;80.53;98293.91;131020;1256;107510;-70
2023/04/01 08:25:03;;;;;;;33.00;24.80;;;;;;;11.84;80.58;98298.73;130886;1263;105966;-70
2023/04/01 08:28:16;;;;;;;30.10;23.60;;;;;;;11.88;80.68;98301.10;131198;1252;107535;-71
2023/04/01 08:31:30;;;;;;;44.90;37.50;;;;;;;11.95;80.62;98300.77;130983;1253;107550;-71
2023/04/01 08:34:38;;;;;;;47.60;35.00;;;;;;;12.09;80.35;98296.42;130947;1255;107448;-71
2023/04/01 08:37:49;;;;;;;41.80;30.30;;;;;;;12.24;80.56;98298.38;131040;1256;105849;-73
2023/04/01 08:41:21;;;;;;;49.30;36.80;;;;;;;12.45;80.15;98299.08;131070;1253;107537;-71
2023/04/01 08:45:19;;;;;;;37.10;28.80;;;;;;;12.71;80.02;98296.55;131130;1251;106329;-72
2023/04/01 08:48:44;;;;;;;22.90;18.70;;;;;;;12.94;79.83;98291.95;131032;1256;106406;-71
2023/04/01 08:52:18;;;;;;;33.00;24.20;;;;;;;13.12;79.92;98290.26;131107;1256;106555;-71
2023/04/01 08:55:52;;;;;;;23.40;16.80;;;;;;;13.37;79.64;98290.66;131085;1253;107539;-72
2023/04/01 08:59:10;;;;;;;13.90;12.10;;;;;;;13.51;79.19;98289.39;130734;1257;107454;-72
2023/04/01 09:03:00;;;;;;;13.00;11.10;;;;;;;13.54;78.90;98289.23;130813;1259;107541;-72
2023/04/01 09:06:22;;;;;;;10.40;9.30;;;;;;;13.53;78.64;98290.56;131142;1256;107689;-72
2023/04/01 09:10:09;;;;;;;10.60;9.30;;;;;;;13.41;78.04;98291.86;130971;1259;107374;-71
2023/04/01 09:13:43;;;;;;;10.30;9.20;;;;;;;13.22;78.17;98287.58;131102;1251;107524;-71
2023/04/01 09:17:28;;;;;;;11.60;10.20;;;;;;;13.11;78.38;98287.05;131048;1255;107615;-70
2023/04/01 09:20:56;;;;;;;13.80;10.50;;;;;;;12.86;77.74;98291.58;130762;1266;107348;-72
2023/04/01 09:24:27;;;;;;;22.60;15.90;;;;;;;12.72;78.56;98298.97;130878;1251;107929;-71
2023/04/01 09:27:44;;;;;;;23.20;16.50;;;;;;;12.55;78.13;98302.23;130940;1253;107508;-71
2023/04/01 09:31:13;;;;;;;17.70;14.80;;;;;;;12.23;78.43;98311.58;131024;1256;107458;-71
2023/04/01 09:34:54;;;;;;;9.60;7.60;;;;;;;11.83;79.08;98323.24;131004;1254;107533;-73
2023/04/01 09:38:20;;;;;;;17.50;11.50;;;;;;;11.40;80.50;98317.23;130956;1257;107482;-72
2023/04/01 09:41:32;;;;;;;8.00;7.00;;;;;;;11.12;81.78;98320.19;130879;1263;107225;-71
2023/04/01 09:44:58;;;;;;;8.20;7.00;;;;;;;10.95;82.39;98318.06;131143;1256;107404;-72
2023/04/01 09:48:28;;;;;;;7.40;5.90;;;;;;;10.95;83.00;98320.65;131009;1251;107429;-71
2023/04/01 09:51:44;;;;;;;7.60;5.80;;;;;;;11.03;83.18;98319.96;130986;1264;107477;-71
2023/04/01 09:55:03;;;;;;;5.50;4.80;;;;;;;11.04;82.94;98319.60;131033;1251;107568;-71
2023/04/01 09:58:44;;;;;;;6.40;5.30;;;;;;;11.06;82.60;98319.85;130912;1253;107489;-71
2023/04/01 10:02:20;;;;;;;9.60;6.60;;;;;;;11.14;82.61;98319.52;131241;1256;106286;-71
2023/04/01 10:06:04;;;;;;;6.40;5.10;;;;;;;11.13;82.61;98321.27;130897;1254;107634;-71
2023/04/01 10:09:45;;;;;;;5.30;4.80;;;;;;;11.22;82.33;98322.04;130812;1250;107474;-71
2023/04/01 10:13:20;;;;;;;6.30;5.60;;;;;;;11.37;82.65;98328.16;131518;1253;107513;-72
2023/04/01 10:17:07;;;;;;;6.50;5.80;;;;;;;11.47;82.50;98327.26;131412;1256;107467;-71
2023/04/01 10:20:58;;;;;;;14.70;9.60;;;;;;;11.63;82.38;98326.42;131106;1253;107471;-71
2023/04/01 10:24:34;;;;;;;9.40;7.20;;;;;;;11.77;82.55;98332.77;130595;1261;107998;-71
2023/04/01 10:28:09;;;;;;;9.50;7.00;;;;;;;11.95;82.41;98332.15;131398;1253;107488;-72
2023/04/01 10:32:36;;;;;;;8.60;7.50;;;;;;;12.11;82.19;98334.38;131126;1251;106824;-71
2023/04/01 10:36:25;;;;;;;8.70;7.30;;;;;;;12.17;81.90;98330.24;131343;1253;106575;-73
2023/04/01 10:40:13;;;;;;;9.60;8.40;;;;;;;12.17;82.19;98331.12;131230;1253;107454;-73
2023/04/01 10:44:10;;;;;;;9.60;7.60;;;;;;;12.23;82.15;98332.36;131173;1251;107547;-72
2023/04/01 10:47:49;;;;;;;4.20;3.80;;;;;;;12.16;81.14;98335.96;130882;1256;107459;-71
2023/04/01 10:51:17;;;;;;;4.70;4.20;;;;;;;12.00;80.51;98340.38;131088;1253;107481;-73
2023/04/01 10:54:45;;;;;;;3.20;2.60;;;;;;;11.96;80.27;98342.34;131198;1253;107215;-72
2023/04/01 10:59:03;;;;;;;4.10;3.70;;;;;;;12.01;80.28;98336.16;131088;1253;107516;-71
2023/04/01 11:03:01;;;;;;;3.20;2.60;;;;;;;12.22;80.48;98338.66;131075;1253;107543;-72
2023/04/01 11:07:13;;;;;;;3.60;3.00;;;;;;;12.56;80.43;98340.50;131266;1253;107279;-73
2023/04/01 11:10:39;;;;;;;;;;;;;;;12.85;80.53;98341.02;131038;1265;109266;-73
2023/04/01 11:14:21;;;;;;;2.10;1.60;;;;;;;13.12;79.90;98343.81;131075;1251;107514;-73
2023/04/01 11:17:58;;;;;;;2.80;2.00;;;;;;;13.21;79.34;98344.27;131078;1253;107876;-73
2023/04/01 11:21:44;;;;;;;1.90;1.70;;;;;;;13.45;79.26;98344.96;131281;1250;108746;-73
2023/04/01 11:25:19;;;;;;;2.20;1.90;;;;;;;13.40;77.59;98349.95;131070;1251;107473;-73
2023/04/01 11:28:50;;;;;;;2.90;2.60;;;;;;;13.28;78.89;98348.33;131226;1253;107525;-73
2023/04/01 11:32:05;;;;;;;2.30;1.90;;;;;;;13.50;79.09;98350.44;131073;1253;108978;-71
2023/04/01 11:35:29;;;;;;;2.40;2.00;;;;;;;13.73;79.30;98350.33;131130;1254;105677;-72
2023/04/01 11:38:54;;;;;;;2.40;1.90;;;;;;;13.88;79.10;98351.74;131153;1254;107491;-73
2023/04/01 11:42:35;;;;;;;2.50;1.90;;;;;;;14.00;77.99;98349.52;130893;1259;107188;-72
2023/04/01 11:46:10;;;;;;;2.60;2.10;;;;;;;13.87;76.65;98354.23;131237;1256;107428;-74
2023/04/01 11:49:44;;;;;;;2.10;1.90;;;;;;;13.69;77.01;98350.89;130984;1251;107572;-73
2023/04/01 11:53:22;;;;;;;2.10;1.60;;;;;;;13.67;78.14;98352.11;131054;1256;107507;-73
2023/04/01 11:56:45;;;;;;;3.30;2.40;;;;;;;13.75;76.31;98349.89;130991;1254;107251;-72
2023/04/01 12:00:15;;;;;;;3.30;2.80;;;;;;;13.78;76.39;98350.65;131049;1256;107385;-73
2023/04/01 12:03:42;;;;;;;4.80;3.80;;;;;;;13.95;77.12;98347.88;131237;1251;107303;-72
2023/04/01 12:06:53;;;;;;;7.90;7.10;;;;;;;14.04;76.19;98346.89;131047;1254;106599;-72
2023/04/01 12:10:13;;;;;;;5.80;4.50;;;;;;;14.05;76.59;98345.31;130991;1254;107436;-71
2023/04/01 12:13:31;;;;;;;3.80;3.20;;;;;;;13.93;73.82;98352.52;131149;1255;107508;-72
2023/04/01 12:16:47;;;;;;;4.50;3.50;;;;;;;13.78;75.29;98353.40;131085;1254;107528;-72
2023/04/01 12:20:00;;;;;;;4.90;2.90;;;;;;;13.85;75.13;98354.64;131028;1251;107477;-72
2023/04/01 12:23:23;;;;;;;2.90;2.40;;;;;;;13.88;75.50;98355.58;131198;1250;107503;-72
2023/04/01 12:26:48;;;;;;;7.20;6.30;;;;;;;13.94;74.52;98358.09;131200;1251;107390;-72
2023/04/01 12:30:10;;;;;;;2.70;2.30;;;;;;;13.87;72.96;98359.22;131273;1256;107509;-72
2023/04/01 12:33:32;;;;;;;;;;;;;;;13.87;73.50;98356.63;131276;1254;106699;-73
2023/04/01 12:37:00;;;;;;;5.00;3.90;;;;;;;13.92;72.99;98361.04;131181;1253;107229;-72
2023/04/01 12:40:46;;;;;;;4.90;3.40;;;;;;;13.83;72.32;98364.63;131105;1263;107388;-72
2023/04/01 12:44:24;;;;;;;2.40;1.90;;;;;;;13.65;71.40;98366.40;130911;1262;107470;-72
2023/04/01 12:47:42;;;;;;;2.90;2.10;;;;;;;13.52;71.88;98370.17;131404;1253;107392;-72
2023/04/01 12:51:32;;;;;;;3.40;2.60;;;;;;;13.45;72.33;98368.38;131232;1253;107534;-71
2023/04/01 12:55:19;;;;;;;5.10;3.30;;;;;;;13.42;73.02;98369.41;130779;1253;107401;-72
2023/04/01 12:59:07;;;;;;;3.50;2.10;;;;;;;13.51;72.62;98366.14;130759;1259;107373;-71
2023/04/01 13:02:25;;;;;;;4.00;3.30;;;;;;;13.35;70.78;98374.21;130778;1259;107422;-72
2023/04/01 13:06:23;;;;;;;3.90;2.90;;;;;;;13.39;72.18;98376.70;130740;1260;107823;-71
2023/04/01 13:09:41;;;;;;;3.40;2.30;;;;;;;13.34;71.77;98380.89;130764;1258;107539;-71
2023/04/01 13:13:08;;;;;;;6.50;4.40;;;;;;;13.15;71.90;98389.69;130972;1259;107297;-72
2023/04/01 13:16:21;;;;;;;6.60;4.70;;;;;;;12.90;72.35;98388.30;131249;1253;107323;-72
2023/04/01 13:19:33;;;;;;;7.90;5.60;;;;;;;12.71;73.17;98396.25;131355;1263;107393;-71
2023/04/01 13:22:52;;;;;;;4.40;3.70;;;;;;;12.61;73.43;98400.76;131289;1251;106560;-72
2023/04/01 13:26:07;;;;;;;5.80;4.20;;;;;;;12.65;73.67;98403.07;131258;1256;107308;-72
2023/04/01 13:29:19;;;;;;;6.00;4.80;;;;;;;12.67;73.44;98408.80;131500;1257;107583;-71
2023/04/01 13:32:35;;;;;;;3.00;2.50;;;;;;;12.69;73.36;98411.62;131269;1250;107499;-70
2023/04/01 13:35:47;;;;;;;17.50;14.70;;;;;;;12.68;73.54;98417.21;131233;1253;107546;-70
2023/04/01 13:39:35;;;;;;;6.40;5.10;;;;;;;12.70;73.27;98420.92;130762;1256;108031;-70
2023/04/01 13:42:46;;;;;;;9.40;7.40;;;;;;;12.72;73.23;98422.23;131031;1250;107966;-70
2023/04/01 13:46:21;;;;;;;6.60;4.00;;;;;;;12.75;73.06;98425.76;131166;1256;108065;-70
2023/04/01 13:49:46;;;;;;;14.00;12.10;;;;;;;12.84;73.10;98434.66;131091;1256;108110;-70
2023/04/01 13:53:22;;;;;;;7.10;5.80;;;;;;;12.90;73.79;98434.51;131108;1263;107557;-70
2023/04/01 13:56:38;;;;;;;10.70;9.30;;;;;;;12.97;73.72;98438.67;131350;1251;107382;-70
2023/04/01 14:00:20;;;;;;;10.00;9.00;;;;;;;12.96;73.94;98443.71;131171;1250;107258;-71
2023/04/01 14:03:39;;;;;;;4.60;3.80;;;;;;;12.86;74.08;98451.08;130425;1260;107538;-70
2023/04/01 14:06:59;;;;;;;8.00;6.50;;;;;;;12.74;73.81;98456.19;131083;1253;108566;-71
2023/04/01 14:10:26;;;;;;;4.60;3.60;;;;;;;12.60;74.01;98459.41;131064;1254;107556;-71
2023/04/01 14:13:40;;;;;;;5.80;3.30;;;;;;;12.48;74.49;98459.88;131032;1251;107377;-70
2023/04/01 14:17:13;;;;;;;5.20;3.60;;;;;;;12.35;74.73;98462.37;131007;1264;108098;-70
2023/04/01 14:20:37;;;;;;;11.50;9.10;;;;;;;12.17;75.50;98470.46;131046;1253;107480;-70
2023/04/01 14:24:02;;;;;;;6.80;5.30;;;;;;;11.97;75.91;98476.40;131395;1249;107523;-71
2023/04/01 14:27:37;;;;;;;8.10;6.90;;;;;;;11.77;76.94;98480.52;131038;1253;107349;-71
2023/04/01 14:30:58;;;;;;;6.50;4.80;;;;;;;11.62;77.14;98487.12;130988;1255;107552;-71
2023/04/01 14:34:22;;;;;;;4.10;3.10;;;;;;;11.49;77.79;98488.73;131068;1253;108510;-72
2023/04/01 14:37:49;;;;;;;4.40;2.90;;;;;;;11.45;77.50;98489.59;131161;1250;107342;-72
2023/04/01 14:41:07;;;;;;;6.10;5.10;;;;;;;11.39;77.69;98494.02;131292;1250;107356;-71
2023/04/01 14:44:32;;;;;;;10.00;9.00;;;;;;;11.43;77.41;98495.38;131142;1254;107259;-71
2023/04/01 14:47:48;;;;;;;6.80;3.70;;;;;;;11.49;77.34;98499.70;131231;1250;107397;-72
2023/04/01 14:50:56;;;;;;;7.60;3.40;;;;;;;11.50;77.27;98506.65;131224;1256;107524;-71
2023/04/01 14:54:16;;;;;;;9.70;7.10;;;;;;;11.50;77.15;98510.06;131109;1255;107540;-71
2023/04/01 14:57:26;;;;;;;8.80;5.90;;;;;;;11.47;77.27;98514.88;131338;1257;107453;-75
2023/04/01 15:00:48;;;;;;;10.10;7.50;;;;;;;11.44;77.76;98521.69;131206;1266;107532;-73
2023/04/01 15:04:07;;;;;;;6.00;3.70;;;;;;;11.39;77.55;98521.27;131170;1253;107421;-72
2023/04/01 15:07:35;;;;;;;14.40;10.10;;;;;;;11.38;77.75;98525.23;131013;1255;107359;-72